createdAt,value
2022-09-26T00:01:09.096Z,2.33
2022-09-26T00:04:21.029Z,2.20
2022-09-26T00:07:26.894Z,1.80
2022-09-26T00:13:37.717Z,2.30
2022-09-26T00:16:42.063Z,1.75
2022-09-26T00:19:45.756Z,2.00
2022-09-26T00:22:49.362Z,1.83
2022-09-26T00:25:54.893Z,2.25
2022-09-26T00:28:59.391Z,2.42
2022-09-26T00:32:03.286Z,2.60
2022-09-26T00:35:08.278Z,2.78
2022-09-26T00:38:12.238Z,2.10
2022-09-26T00:41:18.154Z,1.90
2022-09-26T00:44:45.357Z,2.35
2022-09-26T00:47:57.450Z,2.65
2022-09-26T00:51:01.985Z,2.60
2022-09-26T00:54:07.908Z,2.60
2022-09-26T00:57:17.144Z,2.78
2022-09-26T01:00:23.033Z,2.97
2022-09-26T01:03:28.385Z,2.90
2022-09-26T01:06:34.433Z,2.80
2022-09-26T01:09:39.341Z,3.10
2022-09-26T01:12:45.342Z,2.80
2022-09-26T01:15:49.142Z,3.58
2022-09-26T01:18:52.846Z,3.25
2022-09-26T01:22:24.497Z,3.22
2022-09-26T01:25:45.915Z,3.60
2022-09-26T01:29:12.710Z,3.28
2022-09-26T01:32:45.861Z,3.78
2022-09-26T01:36:17.619Z,3.13
2022-09-26T01:39:33.042Z,3.80
2022-09-26T01:42:43.445Z,3.03
2022-09-26T01:45:53.389Z,3.17
2022-09-26T01:49:09.848Z,3.53
2022-09-26T01:52:20.892Z,3.55
2022-09-26T01:55:29.862Z,3.90
2022-09-26T01:58:38.194Z,3.88
2022-09-26T02:01:46.109Z,3.83
2022-09-26T02:04:56.197Z,4.03
2022-09-26T02:08:06.309Z,3.60
2022-09-26T02:11:14.557Z,4.10
2022-09-26T02:14:23.232Z,3.90
2022-09-26T02:17:31.868Z,3.72
2022-09-26T02:20:43.010Z,4.30
2022-09-26T02:23:47.895Z,4.25
2022-09-26T02:26:52.850Z,3.70
2022-09-26T02:29:57.070Z,4.57
2022-09-26T02:36:09.669Z,4.07
2022-09-26T02:39:13.472Z,5.80
2022-09-26T02:42:35.849Z,4.13
2022-09-26T02:45:45.282Z,3.33
2022-09-26T02:49:00.369Z,3.63
2022-09-26T02:52:21.138Z,3.83
2022-09-26T02:55:32.403Z,3.53
2022-09-26T02:58:48.498Z,3.70
2022-09-26T03:01:56.350Z,4.32
2022-09-26T03:05:04.781Z,4.65
2022-09-26T03:08:14.677Z,4.35
2022-09-26T03:11:22.659Z,5.05
2022-09-26T03:14:26.417Z,4.55
2022-09-26T03:17:30.564Z,4.93
2022-09-26T03:20:35.512Z,4.70
2022-09-26T03:23:41.147Z,6.03
2022-09-26T03:26:46.683Z,5.57
2022-09-26T03:29:50.942Z,5.28
2022-09-26T03:32:58.822Z,4.38
2022-09-26T03:36:06.321Z,5.57
2022-09-26T03:39:11.973Z,5.70
2022-09-26T03:42:23.890Z,5.78
2022-09-26T03:45:29.465Z,5.10
2022-09-26T03:48:40.965Z,4.55
2022-09-26T03:51:45.330Z,4.70
2022-09-26T03:54:50.908Z,4.88
2022-09-26T03:57:54.557Z,4.80
2022-09-26T04:01:07.431Z,4.88
2022-09-26T04:04:11.422Z,4.60
2022-09-26T04:07:16.436Z,4.38
2022-09-26T04:10:23.611Z,4.50
2022-09-26T04:13:49.924Z,3.83
2022-09-26T04:16:51.583Z,4.90
2022-09-26T04:20:03.398Z,4.18
2022-09-26T04:23:08.343Z,4.80
2022-09-26T04:26:20.323Z,4.40
2022-09-26T04:29:26.588Z,4.60
2022-09-26T04:32:37.151Z,4.15
2022-09-26T04:36:01.794Z,4.45
2022-09-26T04:39:06.556Z,4.07
2022-09-26T04:42:13.065Z,3.95
2022-09-26T04:45:17.761Z,4.00
2022-09-26T04:48:21.679Z,4.45
2022-09-26T04:51:51.466Z,4.22
2022-09-26T04:54:55.857Z,4.15
2022-09-26T04:58:03.154Z,4.68
2022-09-26T05:01:09.535Z,3.88
2022-09-26T05:04:33.593Z,3.80
2022-09-26T05:07:41.487Z,3.80
2022-09-26T05:10:45.896Z,3.97
2022-09-26T05:13:53.707Z,4.30
2022-09-26T05:16:58.092Z,3.75
2022-09-26T05:20:01.819Z,3.50
2022-09-26T05:23:44.619Z,3.92
2022-09-26T05:26:50.179Z,3.42
2022-09-26T05:29:57.225Z,4.55
2022-09-26T05:33:02.189Z,4.35
2022-09-26T05:36:07.531Z,4.63
2022-09-26T05:39:31.709Z,3.80
2022-09-26T05:42:33.634Z,3.10
2022-09-26T05:45:39.307Z,4.03
2022-09-26T05:48:44.799Z,3.33
2022-09-26T05:51:53.983Z,3.65
2022-09-26T05:54:58.582Z,3.65
2022-09-26T05:58:20.962Z,3.60
2022-09-26T06:01:52.574Z,3.15
2022-09-26T06:05:13.930Z,3.50
2022-09-26T06:08:41.998Z,3.13
2022-09-26T06:11:57.914Z,3.22
2022-09-26T06:15:01.741Z,3.50
2022-09-26T06:18:07.362Z,3.58
2022-09-26T06:21:13.529Z,2.85
2022-09-26T06:24:19.709Z,2.92
2022-09-26T06:27:25.500Z,2.95
2022-09-26T06:30:29.199Z,3.92
2022-09-26T06:33:42.083Z,2.80
2022-09-26T06:37:08.974Z,3.08
2022-09-26T06:43:17.581Z,3.03
2022-09-26T06:46:39.579Z,3.00
2022-09-26T06:49:52.679Z,3.30
2022-09-26T06:53:09.450Z,3.22
2022-09-26T06:56:13.813Z,3.60
2022-09-26T06:59:18.096Z,2.97
2022-09-26T07:02:52.517Z,2.83
2022-09-26T07:06:05.422Z,4.97
2022-09-26T07:09:12.226Z,2.78
2022-09-26T07:12:41.271Z,2.70
2022-09-26T07:15:47.301Z,3.20
2022-09-26T07:19:05.882Z,3.45
2022-09-26T07:22:18.083Z,3.42
2022-09-26T07:25:27.222Z,3.10
2022-09-26T07:31:34.767Z,2.70
2022-09-26T07:34:54.721Z,3.25
2022-09-26T07:38:00.396Z,3.17
2022-09-26T07:41:04.278Z,2.78
2022-09-26T07:47:47.523Z,2.75
2022-09-26T07:51:12.079Z,3.00
2022-09-26T07:54:24.624Z,2.92
2022-09-26T07:57:49.436Z,3.10
2022-09-26T08:01:12.354Z,3.22
2022-09-26T08:04:34.439Z,3.00
2022-09-26T08:07:39.624Z,3.17
2022-09-26T08:10:52.966Z,3.40
2022-09-26T08:14:10.305Z,3.03
2022-09-26T08:17:34.315Z,3.35
2022-09-26T08:20:39.315Z,2.90
2022-09-26T08:23:43.214Z,4.18
2022-09-26T08:27:24.027Z,3.33
2022-09-26T08:30:30.828Z,3.20
2022-09-26T08:33:38.123Z,2.63
2022-09-26T08:36:41.990Z,2.88
2022-09-26T08:40:04.176Z,2.83
2022-09-26T08:43:42.797Z,3.28
2022-09-26T08:47:16.602Z,2.40
2022-09-26T08:50:49.618Z,3.28
2022-09-26T08:53:58.505Z,3.28
2022-09-26T08:57:06.963Z,3.72
2022-09-26T09:00:20.953Z,2.78
2022-09-26T09:03:45.398Z,2.92
2022-09-26T09:06:51.105Z,3.03
2022-09-26T09:10:00.981Z,2.67
2022-09-26T09:13:38.394Z,5.80
2022-09-26T09:17:24.929Z,2.50
2022-09-26T09:20:49.202Z,3.15
2022-09-26T09:24:19.648Z,3.23
2022-09-26T09:27:54.604Z,2.60
2022-09-26T09:31:02.601Z,3.55
2022-09-26T09:34:41.339Z,4.63
2022-09-26T09:38:20.967Z,2.60
2022-09-26T09:41:49.064Z,2.65
2022-09-26T09:44:57.214Z,2.80
2022-09-26T09:48:01.088Z,3.03
2022-09-26T09:51:29.771Z,2.53
2022-09-26T09:54:49.731Z,2.85
2022-09-26T09:58:16.447Z,2.60
2022-09-26T10:01:25.918Z,5.15
2022-09-26T10:04:38.014Z,2.78
2022-09-26T10:07:44.462Z,2.92
2022-09-26T10:11:23.538Z,2.63
2022-09-26T10:14:39.913Z,2.80
2022-09-26T10:17:56.047Z,3.13
2022-09-26T10:21:18.366Z,3.55
2022-09-26T10:24:38.150Z,3.67
2022-09-26T10:27:50.994Z,3.17
2022-09-26T10:30:57.126Z,2.88
2022-09-26T10:34:06.331Z,2.60
2022-09-26T10:37:31.729Z,2.47
2022-09-26T10:40:55.304Z,3.22
2022-09-26T10:44:00.332Z,3.00
2022-09-26T10:47:30.777Z,3.00
2022-09-26T10:50:59.874Z,4.30
2022-09-26T10:54:20.857Z,2.75
2022-09-26T10:57:33.496Z,3.45
2022-09-26T11:00:41.433Z,2.95
2022-09-26T11:03:55.285Z,2.65
2022-09-26T11:07:01.733Z,2.75
2022-09-26T11:10:15.225Z,2.88
2022-09-26T11:13:31.656Z,2.97
2022-09-26T11:16:54.446Z,3.58
2022-09-26T11:20:03.330Z,2.33
2022-09-26T11:23:21.773Z,3.55
2022-09-26T11:26:33.379Z,2.70
2022-09-26T11:29:44.963Z,2.58
2022-09-26T11:32:56.699Z,2.67
2022-09-26T11:36:36.518Z,2.08
2022-09-26T11:39:57.701Z,3.05
2022-09-26T11:43:14.741Z,2.38
2022-09-26T11:46:37.856Z,3.63
2022-09-26T11:50:03.941Z,2.50
2022-09-26T11:53:48.907Z,2.97
2022-09-26T11:57:01.801Z,2.70
2022-09-26T12:00:12.594Z,2.55
2022-09-26T12:03:42.836Z,2.83
2022-09-26T12:06:55.414Z,3.35
2022-09-26T12:10:15.963Z,3.10
2022-09-26T12:13:33.648Z,2.80
2022-09-26T12:16:45.995Z,3.15
2022-09-26T12:19:58.805Z,2.65
2022-09-26T12:23:13.612Z,2.72
2022-09-26T12:26:22.547Z,2.35
2022-09-26T12:29:37.798Z,2.13
2022-09-26T12:32:59.483Z,2.45
2022-09-26T12:36:18.203Z,2.58
2022-09-26T12:39:51.023Z,2.60
2022-09-26T12:43:14.163Z,2.50
2022-09-26T12:46:33.786Z,2.22
2022-09-26T12:49:58.324Z,2.72
2022-09-26T12:56:23.558Z,1.90
2022-09-26T12:59:43.493Z,2.38
2022-09-26T13:03:11.054Z,2.25
2022-09-26T13:06:35.427Z,1.90
2022-09-26T13:09:59.284Z,2.08
2022-09-26T13:13:30.401Z,2.43
2022-09-26T13:16:42.849Z,7.13
2022-09-26T13:19:53.659Z,2.28
2022-09-26T13:23:04.164Z,1.75
2022-09-26T13:26:16.173Z,1.85
2022-09-26T13:29:25.793Z,1.58
2022-09-26T13:32:39.918Z,1.38
2022-09-26T13:35:47.163Z,1.45
2022-09-26T13:39:02.746Z,1.60
2022-09-26T13:42:16.532Z,1.45
2022-09-26T13:45:27.115Z,1.70
2022-09-26T13:48:40.489Z,1.13
2022-09-26T13:51:53.952Z,1.60
2022-09-26T13:55:01.510Z,1.40
2022-09-26T13:58:21.761Z,1.25
2022-09-26T14:01:27.028Z,1.27
2022-09-26T14:04:36.078Z,1.35
2022-09-26T14:08:06.471Z,1.40
2022-09-26T14:11:23.601Z,1.90
2022-09-26T14:14:44.019Z,1.05
2022-09-26T14:18:09.989Z,1.20
2022-09-26T14:21:23.696Z,1.23
2022-09-26T14:24:40.700Z,1.00
2022-09-26T14:27:45.499Z,1.00
2022-09-26T14:31:13.265Z,1.08
2022-09-26T14:34:24.748Z,2.15
2022-09-26T14:37:41.934Z,1.20
2022-09-26T14:40:55.732Z,1.15
2022-09-26T14:44:04.873Z,1.00
2022-09-26T14:47:16.257Z,1.00
2022-09-26T14:50:22.002Z,2.00
2022-09-26T14:53:29.750Z,1.25
2022-09-26T14:56:43.062Z,1.77
2022-09-26T14:59:46.829Z,1.10
2022-09-26T15:03:00.890Z,1.42
2022-09-26T15:06:08.293Z,1.20
2022-09-26T15:09:13.388Z,1.15
2022-09-26T15:12:22.404Z,1.65
2022-09-26T15:15:40.215Z,1.20
2022-09-26T15:18:50.150Z,1.20
2022-09-26T15:22:00.557Z,1.38
2022-09-26T15:25:09.479Z,1.63
2022-09-26T15:28:13.384Z,1.23
2022-09-26T15:31:26.391Z,1.23
2022-09-26T15:34:34.986Z,1.00
2022-09-26T15:37:38.794Z,1.17
2022-09-26T15:40:42.489Z,1.20
2022-09-26T15:43:44.320Z,2.55
2022-09-26T15:46:50.380Z,1.30
2022-09-26T15:50:08.002Z,0.90
2022-09-26T15:53:23.925Z,0.90
2022-09-26T15:56:33.274Z,1.25
2022-09-26T15:59:41.423Z,0.93
2022-09-26T16:02:45.584Z,1.00
2022-09-26T16:05:52.012Z,2.00
2022-09-26T16:09:01.838Z,1.30
2022-09-26T16:12:12.962Z,1.30
2022-09-26T16:15:21.837Z,1.42
2022-09-26T16:18:30.374Z,1.30
2022-09-26T16:21:37.062Z,1.48
2022-09-26T16:24:40.745Z,1.13
2022-09-26T16:27:44.769Z,1.52
2022-09-26T16:34:00.499Z,1.17
2022-09-26T16:37:06.697Z,1.42
2022-09-26T16:40:19.560Z,1.50
2022-09-26T16:43:28.925Z,1.98
2022-09-26T16:46:36.815Z,1.45
2022-09-26T16:49:44.895Z,2.25
2022-09-26T16:52:50.711Z,2.15
2022-09-26T16:55:54.645Z,2.08
2022-09-26T16:59:00.345Z,1.95
2022-09-26T17:02:04.418Z,1.70
2022-09-26T17:05:16.251Z,1.95
2022-09-26T17:08:21.966Z,2.10
2022-09-26T17:11:27.323Z,2.65
2022-09-26T17:14:40.229Z,1.98
2022-09-26T17:17:44.302Z,1.90
2022-09-26T17:20:48.730Z,1.92
2022-09-26T17:23:54.291Z,2.10
2022-09-26T17:27:00.494Z,1.90
2022-09-26T17:30:08.700Z,2.08
2022-09-26T17:33:13.321Z,2.30
2022-09-26T17:36:22.579Z,2.00
2022-09-26T17:39:30.167Z,2.25
2022-09-26T17:42:33.785Z,2.17
2022-09-26T17:45:44.470Z,2.30
2022-09-26T17:48:48.122Z,2.13
2022-09-26T17:51:53.424Z,2.13
2022-09-26T17:55:03.665Z,2.42
2022-09-26T17:58:08.729Z,2.47
2022-09-26T18:01:22.509Z,2.88
2022-09-26T18:04:28.025Z,2.80
2022-09-26T18:07:36.672Z,2.90
2022-09-26T18:10:47.719Z,6.50
2022-09-26T18:13:54.748Z,4.38
2022-09-26T18:16:58.481Z,3.60
2022-09-26T18:20:02.780Z,3.63
2022-09-26T18:23:07.818Z,3.85
2022-09-26T18:26:20.949Z,3.85
2022-09-26T18:29:31.316Z,4.25
2022-09-26T18:32:40.136Z,4.53
2022-09-26T18:35:44.955Z,3.95
2022-09-26T18:38:49.019Z,4.22
2022-09-26T18:45:03.551Z,4.18
2022-09-26T18:48:08.273Z,4.78
2022-09-26T18:51:12.857Z,4.80
2022-09-26T18:54:18.448Z,4.80
2022-09-26T18:57:52.108Z,5.30
2022-09-26T19:00:59.001Z,4.70
2022-09-26T19:04:05.448Z,5.15
2022-09-26T19:07:09.174Z,5.32
2022-09-26T19:10:16.433Z,5.57
2022-09-26T19:13:27.286Z,5.90
2022-09-26T19:16:31.218Z,6.65
2022-09-26T19:19:35.494Z,5.93
2022-09-26T19:22:39.225Z,7.50
2022-09-26T19:25:43.131Z,7.40
2022-09-26T19:28:48.845Z,6.32
2022-09-26T19:31:52.675Z,6.50
2022-09-26T19:35:00.902Z,6.70
2022-09-26T19:38:07.777Z,6.43
2022-09-26T19:41:11.579Z,6.78
2022-09-26T19:44:17.258Z,6.20
2022-09-26T19:47:24.038Z,6.65
2022-09-26T19:50:28.419Z,6.57
2022-09-26T19:53:40.343Z,8.02
2022-09-26T19:56:45.059Z,6.57
2022-09-26T19:59:51.645Z,7.20
2022-09-26T20:02:55.848Z,6.38
2022-09-26T20:05:59.646Z,6.45
2022-09-26T20:09:04.684Z,7.43
2022-09-26T20:12:08.472Z,7.03
2022-09-26T20:15:15.878Z,8.68
2022-09-26T20:18:22.512Z,7.00
2022-09-26T20:21:29.652Z,6.38
2022-09-26T20:24:36.411Z,6.50
2022-09-26T20:27:40.133Z,5.28
2022-09-26T20:30:56.096Z,5.38
2022-09-26T20:33:59.831Z,4.97
2022-09-26T20:37:04.850Z,4.45
2022-09-26T20:40:16.901Z,4.18
2022-09-26T20:43:29.241Z,3.95
2022-09-26T20:46:37.155Z,3.83
2022-09-26T20:49:46.336Z,4.55
2022-09-26T20:52:49.989Z,3.72
2022-09-26T20:55:54.477Z,3.90
2022-09-26T20:58:58.181Z,3.80
2022-09-26T21:02:17.795Z,4.40
2022-09-26T21:05:24.514Z,4.30
2022-09-26T21:08:30.232Z,4.70
2022-09-26T21:11:33.892Z,5.00
2022-09-26T21:14:37.510Z,5.05
2022-09-26T21:17:44.297Z,5.20
2022-09-26T21:20:47.945Z,5.60
2022-09-26T21:24:19.614Z,4.88
2022-09-26T21:27:29.009Z,5.10
2022-09-26T21:30:32.742Z,5.25
2022-09-26T21:33:39.462Z,4.82
2022-09-26T21:36:43.088Z,5.28
2022-09-26T21:39:47.255Z,5.28
2022-09-26T21:42:54.118Z,4.40
2022-09-26T21:45:57.826Z,4.18
2022-09-26T21:49:03.405Z,4.50
2022-09-26T21:52:11.933Z,4.32
2022-09-26T21:55:19.725Z,4.30
2022-09-26T21:58:28.381Z,3.78
2022-09-26T22:01:32.117Z,3.55
2022-09-26T22:04:37.825Z,3.17
2022-09-26T22:07:41.501Z,3.10
2022-09-26T22:10:45.112Z,3.05
2022-09-26T22:13:48.894Z,2.85
2022-09-26T22:16:53.057Z,3.22
2022-09-26T22:19:58.630Z,3.67
2022-09-26T22:23:02.273Z,2.42
2022-09-26T22:26:06.645Z,2.63
2022-09-26T22:29:10.345Z,2.25
2022-09-26T22:32:14.338Z,2.00
2022-09-26T22:35:19.873Z,1.98
2022-09-26T22:38:23.504Z,2.13
2022-09-26T22:41:27.137Z,1.77
2022-09-26T22:44:30.746Z,2.03
2022-09-26T22:47:34.373Z,1.55
2022-09-26T22:50:39.907Z,1.40
2022-09-26T22:53:44.282Z,1.50
2022-09-26T22:56:47.937Z,1.70
2022-09-26T22:59:51.580Z,1.65
2022-09-26T23:02:55.227Z,2.25
2022-09-26T23:06:01.078Z,1.63
2022-09-26T23:09:04.875Z,1.90
2022-09-26T23:12:09.529Z,1.33
2022-09-26T23:15:13.445Z,1.52
2022-09-26T23:18:17.096Z,1.73
2022-09-26T23:21:24.492Z,1.35
2022-09-26T23:24:28.197Z,1.30
2022-09-26T23:27:31.832Z,1.27
2022-09-26T23:30:35.541Z,1.88
2022-09-26T23:33:40.074Z,2.25
2022-09-26T23:36:45.682Z,1.75
2022-09-26T23:39:49.774Z,1.50
2022-09-26T23:42:53.417Z,1.40
2022-09-26T23:45:57.199Z,1.45
2022-09-26T23:49:00.907Z,1.20
2022-09-26T23:52:06.441Z,1.48
2022-09-26T23:55:11.025Z,1.42
2022-09-26T23:58:15.490Z,1.40
